• Join FlightAware (Why Join?)
  • Login
  • US Flag 
08:12PM EDT


 

Airport Tracker/Info


-or-


 

Live Flight TrackerFlight Track Log ✈ N265NX ✈ 20-Jun-2013 ✈ KBOI - KFAT

Flight Track Log - Related Links

Times and Time Zones

All times are in EDT time to prevent confusion due to time zone crossing. See the N265NX flight status page for this flight to view local times or setup timezone preferences in your user account.

Time Position Orientation Groundspeed Altitude Reporting Facility
EDT Latitude Longitude Course Direction KTS MPH feet Rate Location/Type
05:50PM 43.5808 -116.2972 231° Southwest 148 170 5,600  Level Salt Lake Center
05:51PM 43.5514 -116.3411 227° Southwest 160 184 7,600 1,980 Climbing Salt Lake Center
05:52PM 43.5222 -116.3903 231° Southwest 159 183 9,800 2,040 Climbing Salt Lake Center
05:53PM 43.4933 -116.4372 230° Southwest 154 177 11,900 1,740 Climbing Salt Lake Center
05:54PM 43.4653 -116.4814 229° Southwest 164 189 13,400 1,560 Climbing Salt Lake Center
05:55PM 43.3094 -116.6455 231° Southwest  Level FlightAware Approximate
05:55PM 43.4308 -116.5372 230° Southwest 171 197 15,200  Level Salt Lake Center
05:56PM 43.3997 -116.5872 229° Southwest 179 206 16,900 1,680 Climbing Salt Lake Center
05:57PM 43.3642 -116.6456 230° Southwest 178 205 18,700 1,560 Climbing Salt Lake Center
05:58PM 43.3333 -116.6964 230° Southwest 180 207 20,200 1,380 Climbing Salt Lake Center
05:59PM 43.2961 -116.7556 229° Southwest 184 212 21,600 840 Climbing Salt Lake Center
06:00PM 43.2631 -116.8092 230° Southwest 196 226 22,000 180 Climbing Salt Lake Center
06:01PM 43.2158 -116.8825 229° Southwest 228 262 22,000  Level Salt Lake Center
06:02PM 43.1747 -116.9511 231° Southwest 239 275 22,000  Level Salt Lake Center
06:03PM 43.1264 -117.0283 229° Southwest 239 275 22,000  Level Salt Lake Center
06:04PM 43.0850 -117.0944 229° Southwest 239 275 22,000  Level Salt Lake Center
06:05PM 43.0364 -117.1725 230° Southwest 242 278 22,000  Level Salt Lake Center
06:06PM 42.9947 -117.2378 229° Southwest 239 275 22,000  Level Salt Lake Center
06:07PM 42.9528 -117.3017 228° Southwest 235 270 22,000  Level Salt Lake Center
06:08PM 42.9047 -117.3786 230° Southwest 238 274 22,000  Level Salt Lake Center
06:09PM 42.8636 -117.4433 229° Southwest 236 272 22,000  Level Salt Lake Center
06:10PM 42.8142 -117.5183 228° Southwest 236 272 22,000  Level Salt Lake Center
06:11PM 42.7731 -117.5844 230° Southwest 238 274 22,000  Level Salt Lake Center
06:12PM 42.7244 -117.6592 228° Southwest 235 270 22,000  Level Salt Lake Center
06:13PM 42.6836 -117.7233 229° Southwest 235 270 22,000  Level Salt Lake Center
06:14PM 42.6350 -117.7972 228° Southwest 235 270 22,000  Level Salt Lake Center
06:15PM 42.5925 -117.8578 226° Southwest 231 266 22,000  Level Salt Lake Center
06:16PM 42.5225 -117.8931 200° South 240 276 22,000  Level Salt Lake Center
06:17PM 42.4594 -117.9172 196° South 244 281 22,000  Level Salt Lake Center
06:19PM 42.3967 -117.9397 195° South 242 278 22,000  Level Salt Lake Center
06:20PM 42.3228 -117.9672 195° South 246 283 22,000  Level Salt Lake Center
06:21PM 42.2603 -117.9906 195° South 244 281 22,000  Level Salt Lake Center
06:22PM 42.1889 -118.0167 195° South 244 281 22,000  Level Salt Lake Center
06:23PM 42.1267 -118.0406 196° South 243 280 22,000  Level Salt Lake Center
06:24PM 42.0542 -118.0678 196° South 242 278 22,000  Level Salt Lake Center
06:25PM 41.9914 -118.0897 195° South 242 278 22,000  Level Salt Lake Center
06:26PM 41.9186 -118.1164 195° South 243 280 22,000  Level Salt Lake Center
06:27PM 41.8564 -118.1397 196° South 243 280 22,000  Level Salt Lake Center
06:28PM 41.7828 -118.1656 195° South 244 281 22,000  Level Salt Lake Center
06:29PM 41.7206 -118.1883 195° South 242 278 22,000  Level Salt Lake Center
06:30PM 41.6458 -118.2147 195° South 249 287 22,000  Level Salt Lake Center
06:31PM 41.5831 -118.2392 196° South 248 285 22,000  Level Salt Lake Center
06:32PM 41.5106 -118.2650 195° South 242 278 22,000  Level Salt Lake Center
06:33PM 41.4497 -118.2847 194° South 237 273 22,000  Level Salt Lake Center
06:34PM 41.3872 -118.3086 196° South 240 276 22,000  Level Salt Lake Center
06:35PM 41.3158 -118.3333 195° South 239 275 22,000  Level Salt Lake Center
06:36PM 41.2531 -118.3561 195° South 243 280 22,000  Level Salt Lake Center
06:37PM 41.1803 -118.3822 195° South 243 280 22,000  Level Salt Lake Center
06:38PM 41.1175 -118.4050 195° South 243 280 22,000  Level Salt Lake Center
06:39PM 41.0450 -118.4308 195° South 242 278 22,000  Level Salt Lake Center
06:40PM 40.9836 -118.4517 194° South 240 276 22,000  Level Salt Lake Center
06:41PM 40.9103 -118.4778 195° South 243 280 22,000  Level Salt Lake Center
06:42PM 40.8478 -118.4994 195° South 243 280 22,000  Level Salt Lake Center
06:43PM 40.7858 -118.5225 196° South 242 278 22,000  Level Salt Lake Center
06:44PM 40.7114 -118.5481 195° South 245 282 22,000  Level Salt Lake Center
06:45PM 40.6489 -118.5700 195° South 244 281 22,000  Level Salt Lake Center
06:46PM 40.5747 -118.5961 195° South 246 283 22,000  Level Salt Lake Center
06:47PM 40.5106 -118.6181 195° South 248 285 22,000  Level Salt Lake Center
06:48PM 40.4361 -118.6442 195° South 248 285 22,000  Level Salt Lake Center
06:50PM 40.3456 -118.6747 194° South 247 284 22,000  Level Oakland Center
06:50PM 40.2983 -118.6919 196° South 247 284 22,000  Level Salt Lake Center
06:52PM 40.2367 -118.7111 193° South 253 291 22,000  Level Salt Lake Center
06:53PM 40.1692 -118.7358 196° South 253 291 22,000  Level Salt Lake Center
06:54PM 40.0875 -118.7633 194° South 253 291 22,000  Level Salt Lake Center
06:55PM 40.0206 -118.7867 195° South 250 288 22,000  Level Salt Lake Center
06:56PM 39.9600 -118.8239 205° Southwest 242 278 22,000  Level Salt Lake Center
06:57PM 39.8872 -118.8706 206° Southwest 244 281 22,000  Level Oakland Center
06:58PM 39.8269 -118.9083 206° Southwest 242 278 22,000  Level Oakland Center
06:59PM 39.7547 -118.9542 206° Southwest 243 280 22,000  Level Oakland Center
07:00PM 39.6944 -118.9917 206° Southwest 242 278 22,000  Level Oakland Center
07:01PM 39.6333 -119.0300 206° Southwest 244 281 22,000  Level Oakland Center
07:02PM 39.5722 -119.0686 206° Southwest 247 284 22,000  Level Oakland Center
07:03PM 39.5114 -119.1072 206° Southwest 246 283 22,000  Level Oakland Center
07:04PM 39.4506 -119.1442 205° Southwest 244 281 22,000  Level Oakland Center
07:05PM 39.3772 -119.1897 206° Southwest 245 282 22,000  Level Oakland Center
07:06PM 39.3169 -119.2278 206° Southwest 243 280 22,000  Level Oakland Center
07:07PM 39.2567 -119.2656 206° Southwest 241 277 22,000  Level Oakland Center
07:08PM 39.1903 -119.2911 197° South 247 284 22,000  Level Oakland Center
07:09PM 39.1200 -119.3058 189° South 256 295 22,000  Level Oakland Center
07:10PM 39.0489 -119.3231 191° South 258 297 22,000  Level Oakland Center
07:11PM 38.9764 -119.3397 190° South 263 303 22,000  Level Oakland Center
07:12PM 38.9050 -119.3561 190° South 261 300 22,000  Level Oakland Center
07:13PM 38.8200 -119.3756 190° South 260 299 22,000 -120 Level Oakland Center
07:14PM 38.7486 -119.3925 190° South 262 302 21,800 -360 Descending Oakland Center
07:15PM 38.6750 -119.4097 190° South 267 307 21,300 -420 Descending Oakland Center
07:16PM 38.6003 -119.4272 190° South 272 313 21,000 -180 Descending Oakland Center
07:17PM 38.5264 -119.4436 190° South 270 311 21,000  Level Oakland Center
07:18PM 38.4550 -119.4611 191° South 262 302 21,000  Level Oakland Center
07:19PM 38.3767 -119.4794 190° South 259 298 21,000  Level Oakland Center
07:20PM 38.3061 -119.4958 190° South 257 296 21,000  Level Oakland Center
07:22PM 38.2333 -119.5128 190° South 264 304 21,000  Level Oakland Center
07:23PM 38.1608 -119.5294 190° South 265 305 21,000  Level Oakland Center
07:24PM 38.0900 -119.5447 190° South 260 299 21,000 -180 Level Oakland Center
07:25PM 38.0172 -119.5611 190° South 262 302 20,700 -420 Descending Oakland Center
07:26PM 37.9389 -119.5783 190° South 277 319 20,200 -540 Descending Oakland Center
07:27PM 37.8619 -119.5969 191° South 282 325 19,700 -540 Descending Oakland Center
07:28PM 37.7714 -119.6169 190° South 278 320 19,100 -540 Descending Oakland Center
07:29PM 37.6953 -119.6344 190° South 276 318 18,600 -840 Descending Oakland Center
07:30PM 37.6172 -119.6519 190° South 284 327 17,400 -1,680 Descending Oakland Center
07:31PM 37.5369 -119.6656 188° South 286 329 15,200 -1,860 Descending Oakland Center
07:32PM 37.4581 -119.6714 183° South 282 325 13,700 -1,560 Descending Oakland Center
07:33PM 37.3769 -119.6778 184° South 289 333 12,100 -1,620 Descending Oakland Center
07:34PM 37.2939 -119.6836 183° South 273 314 10,500 -1,500 Descending Oakland Center
07:35PM 37.2211 -119.6889 183° South 262 302 9,100 -1,380 Descending Oakland Center
07:36PM 37.1489 -119.6933 183° South 259 298 7,700 -1,380 Descending Oakland Center
07:37PM 37.0767 -119.6983 183° South 259 298 6,300 -1,320 Descending Oakland Center
07:38PM 37.0058 -119.7031 183° South 255 293 5,000 -1,320 Descending Oakland Center
07:39PM 36.9358 -119.7075 183° South 252 290 3,600 -1,320 Descending Oakland Center
07:40PM 36.8619 -119.7128 183° South 236 272 2,300 -1,140 Descending Oakland Center
07:41PM 36.8008 -119.7167 183° South 214 246 1,300 -600 Descending Oakland Center
07:42PM 36.7683 -119.6811 139° Southeast 166 191 1,100 -420 Descending Oakland Center
07:43PM 36.7689 -119.7078 271° West 100 115 500 -600 Descending Oakland Center
07:45PM 36.7667 -119.7167 270° West  Level FlightAware Approximate